createdAt,value
2024-01-09T00:02:12.894Z,11.75
2024-01-09T00:04:40.463Z,12.70
2024-01-09T00:09:35.969Z,13.68
2024-01-09T00:12:03.959Z,10.30
2024-01-09T00:14:31.471Z,13.88
2024-01-09T00:16:59.206Z,12.50
2024-01-09T00:19:27.336Z,15.15
2024-01-09T00:21:57.171Z,14.98
2024-01-09T00:24:24.714Z,14.95
2024-01-09T00:26:52.332Z,15.98
2024-01-09T00:29:21.373Z,12.55
2024-01-09T00:31:48.967Z,13.82
2024-01-09T00:34:16.686Z,13.23
2024-01-09T00:36:45.624Z,14.77
2024-01-09T00:39:13.139Z,14.73
2024-01-09T00:44:07.940Z,12.32
2024-01-09T00:49:03.179Z,10.80
2024-01-09T00:51:30.849Z,9.82
2024-01-09T00:53:58.484Z,12.48
2024-01-09T00:56:26.075Z,11.40
2024-01-09T00:58:53.553Z,18.13
2024-01-09T01:03:48.961Z,13.38
2024-01-09T01:06:16.708Z,16.95
2024-01-09T01:08:44.362Z,14.75
2024-01-09T01:11:11.888Z,14.40
2024-01-09T01:16:06.937Z,10.85
2024-01-09T01:18:34.550Z,12.02
2024-01-09T01:21:02.116Z,14.32
2024-01-09T01:23:29.795Z,11.95
2024-01-09T01:25:57.425Z,14.88
2024-01-09T01:28:25.053Z,13.48
2024-01-09T01:30:52.713Z,11.93
2024-01-09T01:33:20.276Z,11.93
2024-01-09T01:35:47.845Z,12.00
2024-01-09T01:38:15.501Z,13.52
2024-01-09T01:40:43.208Z,13.40
2024-01-09T01:43:10.836Z,12.88
2024-01-09T01:45:38.352Z,14.38
2024-01-09T01:50:35.592Z,13.05
2024-01-09T01:53:05.619Z,12.20
2024-01-09T01:55:34.700Z,14.75
2024-01-09T01:58:04.004Z,14.95
2024-01-09T02:00:32.364Z,13.43
2024-01-09T02:03:00.148Z,13.75
2024-01-09T02:05:30.713Z,11.82
2024-01-09T02:07:59.294Z,14.27
2024-01-09T02:10:26.805Z,17.42
2024-01-09T02:12:55.352Z,14.68
2024-01-09T02:15:22.939Z,13.55
2024-01-09T02:17:50.955Z,12.00
2024-01-09T02:20:22.408Z,15.70
2024-01-09T02:22:51.115Z,18.00
2024-01-09T02:25:18.684Z,14.68
2024-01-09T02:28:03.038Z,13.85
2024-01-09T02:30:31.534Z,10.95
2024-01-09T02:32:59.236Z,13.52
2024-01-09T02:35:27.215Z,13.98
2024-01-09T02:37:54.917Z,13.93
2024-01-09T02:40:23.813Z,12.25
2024-01-09T02:42:52.509Z,17.27
2024-01-09T02:45:19.979Z,12.70
2024-01-09T02:50:16.248Z,15.68
2024-01-09T02:52:43.839Z,13.27
2024-01-09T02:55:11.340Z,12.95
2024-01-09T03:00:10.393Z,14.90
2024-01-09T03:02:38.694Z,13.07
2024-01-09T03:05:08.333Z,15.43
2024-01-09T03:07:36.245Z,15.23
2024-01-09T03:10:04.266Z,14.32
2024-01-09T03:12:31.832Z,14.60
2024-01-09T03:14:59.375Z,12.73
2024-01-09T03:17:27.066Z,12.77
2024-01-09T03:19:54.579Z,16.95
2024-01-09T03:27:16.804Z,13.95
2024-01-09T03:32:11.860Z,12.40
2024-01-09T03:34:43.299Z,12.95
2024-01-09T03:37:11.327Z,13.30
2024-01-09T03:39:38.843Z,13.55
2024-01-09T03:42:06.416Z,12.40
2024-01-09T03:44:34.159Z,13.95
2024-01-09T03:47:01.712Z,13.32
2024-01-09T03:49:29.308Z,14.30
2024-01-09T03:51:58.904Z,12.48
2024-01-09T03:54:26.344Z,13.30
2024-01-09T04:01:48.588Z,14.10
2024-01-09T04:09:13.632Z,16.17
2024-01-09T04:11:48.286Z,16.02
2024-01-09T04:14:16.154Z,15.07
2024-01-09T04:16:49.910Z,13.23
2024-01-09T04:19:17.522Z,15.82
2024-01-09T04:21:45.053Z,15.75
2024-01-09T04:26:39.955Z,13.32
2024-01-09T04:29:07.560Z,13.05
2024-01-09T04:31:35.086Z,13.95
2024-01-09T04:34:02.741Z,14.13
2024-01-09T04:36:30.242Z,16.15
2024-01-09T04:41:27.919Z,13.65
2024-01-09T04:43:55.621Z,16.63
2024-01-09T04:46:23.060Z,14.57
2024-01-09T04:51:18.111Z,14.77
2024-01-09T04:56:13.806Z,12.77
2024-01-09T04:58:41.299Z,14.15
2024-01-09T05:03:40.296Z,13.05
2024-01-09T05:06:07.969Z,14.88
2024-01-09T05:08:35.772Z,14.07
2024-01-09T05:11:03.815Z,15.35
2024-01-09T05:13:32.410Z,12.77
2024-01-09T05:15:59.930Z,15.57
2024-01-09T05:20:54.866Z,14.32
2024-01-09T05:23:22.393Z,14.10
2024-01-09T05:28:17.361Z,13.27
2024-01-09T05:30:44.981Z,16.40
2024-01-09T05:33:12.853Z,16.92
2024-01-09T05:35:40.470Z,14.13
2024-01-09T05:38:14.946Z,16.20
2024-01-09T05:40:47.768Z,14.98
2024-01-09T05:43:15.442Z,18.23
2024-01-09T05:45:42.997Z,17.48
2024-01-09T05:48:10.797Z,16.98
2024-01-09T05:50:38.436Z,15.23
2024-01-09T05:53:05.959Z,16.90
2024-01-09T06:00:28.017Z,15.63
2024-01-09T06:05:23.056Z,14.77
2024-01-09T06:07:50.727Z,19.33
2024-01-09T06:10:18.311Z,15.40
2024-01-09T06:12:45.886Z,17.25
2024-01-09T06:17:40.917Z,17.35
2024-01-09T06:20:09.047Z,17.85
2024-01-09T06:22:36.494Z,15.95
2024-01-09T06:27:31.687Z,20.10
2024-01-09T06:32:26.842Z,18.48
2024-01-09T06:34:54.423Z,15.70
2024-01-09T06:39:49.393Z,17.50
2024-01-09T06:42:17.188Z,17.55
2024-01-09T06:44:44.779Z,16.58
2024-01-09T06:47:12.346Z,15.60
2024-01-09T06:49:40.025Z,18.98
2024-01-09T06:52:07.648Z,16.95
2024-01-09T06:57:02.446Z,18.50
2024-01-09T06:59:30.056Z,21.70
2024-01-09T07:01:57.604Z,19.75
2024-01-09T07:04:25.552Z,19.00
2024-01-09T07:06:53.419Z,20.00
2024-01-09T07:09:21.065Z,21.60
2024-01-09T07:11:48.666Z,18.85
2024-01-09T07:14:16.277Z,21.10
2024-01-09T07:16:43.877Z,22.45
2024-01-09T07:19:11.526Z,21.40
2024-01-09T07:21:39.109Z,21.60
2024-01-09T07:24:06.778Z,20.08
2024-01-09T07:26:40.918Z,20.83
2024-01-09T07:29:09.430Z,20.40
2024-01-09T07:31:36.988Z,24.02
2024-01-09T07:34:04.901Z,20.00
2024-01-09T07:36:32.624Z,20.70
2024-01-09T07:41:27.882Z,23.00
2024-01-09T07:43:59.426Z,21.58
2024-01-09T07:46:28.126Z,21.38
2024-01-09T07:48:55.794Z,20.63
2024-01-09T07:51:23.368Z,23.90
2024-01-09T07:56:20.109Z,20.40
2024-01-09T07:58:47.918Z,22.90
2024-01-09T08:01:16.666Z,24.90
2024-01-09T08:03:44.374Z,23.52
2024-01-09T08:06:16.473Z,22.27
2024-01-09T08:08:47.268Z,24.40
2024-01-09T08:11:17.827Z,24.98
2024-01-09T08:13:45.570Z,25.00
2024-01-09T08:16:13.173Z,24.48
2024-01-09T08:18:40.966Z,24.73
2024-01-09T08:21:08.660Z,22.48
2024-01-09T08:23:37.025Z,22.67
2024-01-09T08:26:04.952Z,24.50
2024-01-09T08:28:32.537Z,24.38
2024-01-09T08:31:00.119Z,25.58
2024-01-09T08:33:32.042Z,25.98
2024-01-09T08:36:00.334Z,24.30
2024-01-09T08:38:27.991Z,23.20
2024-01-09T08:40:57.530Z,22.40
2024-01-09T08:43:25.548Z,26.23
2024-01-09T08:45:54.723Z,23.90
2024-01-09T08:48:23.855Z,24.30
2024-01-09T08:50:51.953Z,24.02
2024-01-09T08:53:19.621Z,23.58
2024-01-09T08:55:47.199Z,24.15
2024-01-09T08:58:14.750Z,26.80
2024-01-09T09:00:42.365Z,23.65
2024-01-09T09:03:10.110Z,25.58
2024-01-09T09:05:38.043Z,25.40
2024-01-09T09:08:05.835Z,25.50
2024-01-09T09:10:33.393Z,26.77
2024-01-09T09:15:28.270Z,24.73
2024-01-09T09:17:56.402Z,29.45
2024-01-09T09:20:24.288Z,26.48
2024-01-09T09:22:52.933Z,26.73
2024-01-09T09:25:20.540Z,28.13
2024-01-09T09:27:48.188Z,29.02
2024-01-09T09:30:15.972Z,26.83
2024-01-09T09:32:43.606Z,25.80
2024-01-09T09:35:11.349Z,26.45
2024-01-09T09:37:38.910Z,26.73
2024-01-09T09:42:36.658Z,24.25
2024-01-09T09:45:10.706Z,26.88
2024-01-09T09:47:40.182Z,26.98
2024-01-09T09:50:11.403Z,25.95
2024-01-09T09:52:43.589Z,24.55
2024-01-09T09:55:11.326Z,27.05
2024-01-09T09:57:39.157Z,27.65
2024-01-09T10:00:10.721Z,26.27
2024-01-09T10:02:52.433Z,25.65
2024-01-09T10:05:20.720Z,26.38
2024-01-09T10:07:51.523Z,27.00
2024-01-09T10:10:21.714Z,26.27
2024-01-09T10:12:49.715Z,29.50
2024-01-09T10:15:19.072Z,26.33
2024-01-09T10:17:47.586Z,26.55
2024-01-09T10:20:17.193Z,28.42
2024-01-09T10:22:45.024Z,30.33
2024-01-09T10:25:14.446Z,32.47
2024-01-09T10:27:42.441Z,39.05
2024-01-09T10:30:11.756Z,29.70
2024-01-09T10:32:45.006Z,26.52
2024-01-09T10:35:14.882Z,30.20
2024-01-09T10:37:45.816Z,29.38
2024-01-09T10:40:14.279Z,30.15
2024-01-09T10:42:48.775Z,26.58
2024-01-09T10:45:18.275Z,26.70
2024-01-09T10:47:46.994Z,28.52
2024-01-09T10:50:16.930Z,27.58
2024-01-09T10:52:45.990Z,33.25
2024-01-09T10:55:14.088Z,30.75
2024-01-09T10:57:42.712Z,29.02
2024-01-09T11:00:12.963Z,30.08
2024-01-09T11:02:41.631Z,27.48
2024-01-09T11:05:12.214Z,31.10
2024-01-09T11:07:44.153Z,26.83
2024-01-09T11:10:17.792Z,26.42
2024-01-09T11:12:50.147Z,27.73
2024-01-09T11:15:26.386Z,29.77
2024-01-09T11:17:59.505Z,28.95
2024-01-09T11:20:28.641Z,33.08
2024-01-09T11:22:56.345Z,31.50
2024-01-09T11:25:25.741Z,26.40
2024-01-09T11:27:55.041Z,26.55
2024-01-09T11:30:34.616Z,29.35
2024-01-09T11:33:33.927Z,30.02
2024-01-09T11:36:06.576Z,30.17
2024-01-09T11:38:35.476Z,27.73
2024-01-09T11:41:07.391Z,29.83
2024-01-09T11:44:03.862Z,28.15
2024-01-09T11:46:36.844Z,26.70
2024-01-09T11:49:06.658Z,27.00
2024-01-09T11:51:35.917Z,27.55
2024-01-09T11:54:05.955Z,27.80
2024-01-09T11:56:33.894Z,26.83
2024-01-09T11:59:02.294Z,26.67
2024-01-09T12:01:30.115Z,28.50
2024-01-09T12:03:58.654Z,29.17
2024-01-09T12:06:30.398Z,25.92
2024-01-09T12:08:59.180Z,25.20
2024-01-09T12:11:26.733Z,25.67
2024-01-09T12:14:04.138Z,26.67
2024-01-09T12:16:33.173Z,24.00
2024-01-09T12:19:02.558Z,25.17
2024-01-09T12:21:33.076Z,28.40
2024-01-09T12:24:19.564Z,28.85
2024-01-09T12:26:50.497Z,27.70
2024-01-09T12:29:18.506Z,28.52
2024-01-09T12:31:46.628Z,25.90
2024-01-09T12:34:14.404Z,22.77
2024-01-09T12:36:42.066Z,25.55
2024-01-09T12:41:42.389Z,29.50
2024-01-09T12:44:11.186Z,25.10
2024-01-09T12:46:42.301Z,25.55
2024-01-09T12:49:10.036Z,24.98
2024-01-09T12:51:37.588Z,25.35
2024-01-09T12:56:32.586Z,25.00
2024-01-09T12:59:00.090Z,26.35
2024-01-09T13:03:59.480Z,23.65
2024-01-09T13:06:27.491Z,24.83
2024-01-09T13:08:55.298Z,26.13
2024-01-09T13:11:23.026Z,24.10
2024-01-09T13:13:50.624Z,22.90
2024-01-09T13:16:19.493Z,21.80
2024-01-09T13:18:47.249Z,23.45
2024-01-09T13:21:14.803Z,22.02
2024-01-09T13:23:49.452Z,22.67
2024-01-09T13:26:20.316Z,22.92
2024-01-09T13:31:19.522Z,23.10
2024-01-09T13:33:47.372Z,21.80
2024-01-09T13:36:17.192Z,24.92
2024-01-09T13:38:46.738Z,23.83
2024-01-09T13:41:16.875Z,21.67
2024-01-09T13:43:44.837Z,21.95
2024-01-09T13:46:12.992Z,25.67
2024-01-09T13:48:42.088Z,22.30
2024-01-09T13:51:49.872Z,25.10
2024-01-09T13:53:58.015Z,24.48
2024-01-09T13:58:56.063Z,25.15
2024-01-09T14:01:30.464Z,24.92
2024-01-09T14:04:06.675Z,23.80
2024-01-09T14:06:34.537Z,23.42
2024-01-09T14:09:02.216Z,25.10
2024-01-09T14:11:29.790Z,26.40
2024-01-09T14:16:26.429Z,22.23
2024-01-09T14:18:54.474Z,20.92
2024-01-09T14:21:21.976Z,18.88
2024-01-09T14:23:50.249Z,17.90
2024-01-09T14:26:21.878Z,20.98
2024-01-09T14:28:49.777Z,20.85
2024-01-09T14:31:17.344Z,20.13
2024-01-09T14:36:12.377Z,21.55
2024-01-09T14:38:40.100Z,20.05
2024-01-09T14:41:11.776Z,19.10
2024-01-09T14:43:42.528Z,22.27
2024-01-09T14:46:16.887Z,20.08
2024-01-09T14:48:44.774Z,19.45
2024-01-09T14:51:12.278Z,15.95
2024-01-09T14:58:35.354Z,20.48
2024-01-09T15:01:03.246Z,18.55
2024-01-09T15:03:30.830Z,20.88
2024-01-09T15:05:58.430Z,21.30
2024-01-09T15:08:26.263Z,17.80
2024-01-09T15:10:54.739Z,18.42
2024-01-09T15:13:22.292Z,15.95
2024-01-09T15:15:49.895Z,18.92
2024-01-09T15:20:44.807Z,21.02
2024-01-09T15:25:41.672Z,18.88
2024-01-09T15:28:09.726Z,18.30
2024-01-09T15:30:37.385Z,17.85
2024-01-09T15:33:09.382Z,17.38
2024-01-09T15:35:37.960Z,17.98
2024-01-09T15:38:06.265Z,17.55
2024-01-09T15:40:34.019Z,19.10
2024-01-09T15:43:01.641Z,18.25
2024-01-09T15:50:26.142Z,17.10
2024-01-09T15:52:53.807Z,18.85
2024-01-09T15:55:21.445Z,16.73
2024-01-09T15:57:49.131Z,21.05
2024-01-09T16:00:17.916Z,19.25
2024-01-09T16:02:45.880Z,16.88
2024-01-09T16:05:14.229Z,19.17
2024-01-09T16:07:41.990Z,21.13
2024-01-09T16:10:10.344Z,18.23
2024-01-09T16:12:38.050Z,19.75
2024-01-09T16:15:06.077Z,19.55
2024-01-09T16:17:34.906Z,19.15
2024-01-09T16:20:02.956Z,20.30
2024-01-09T16:22:31.047Z,21.17
2024-01-09T16:24:59.373Z,23.13
2024-01-09T16:27:26.931Z,26.20
2024-01-09T16:32:23.160Z,26.63
2024-01-09T16:34:50.983Z,19.98
2024-01-09T16:37:18.488Z,25.33
2024-01-09T16:42:17.605Z,22.30
2024-01-09T16:44:45.177Z,22.25
2024-01-09T16:47:12.792Z,21.20
2024-01-09T16:49:43.445Z,24.98
2024-01-09T16:52:11.270Z,24.60
2024-01-09T16:54:39.399Z,23.63
2024-01-09T16:57:07.263Z,22.88
2024-01-09T16:59:34.794Z,24.10
2024-01-09T17:04:31.666Z,22.90
2024-01-09T17:06:59.203Z,22.48
2024-01-09T17:14:22.985Z,25.70
2024-01-09T17:16:53.304Z,22.38
2024-01-09T17:19:24.479Z,25.25
2024-01-09T17:21:52.456Z,23.30
2024-01-09T17:24:19.983Z,21.50
2024-01-09T17:29:15.008Z,23.15
2024-01-09T17:31:44.425Z,24.42
2024-01-09T17:34:12.529Z,21.38
2024-01-09T17:36:40.148Z,22.55
2024-01-09T17:39:10.088Z,22.10
2024-01-09T17:41:40.638Z,23.38
2024-01-09T17:44:08.726Z,21.45
2024-01-09T17:46:40.428Z,22.05
2024-01-09T17:49:08.307Z,21.88
2024-01-09T17:51:40.552Z,27.88
2024-01-09T17:54:08.222Z,23.15
2024-01-09T17:57:10.024Z,21.95
2024-01-09T17:59:40.235Z,26.58
2024-01-09T18:02:07.744Z,24.13
2024-01-09T18:04:38.468Z,21.75
2024-01-09T18:07:10.177Z,22.25
2024-01-09T18:09:37.937Z,23.77
2024-01-09T18:12:06.766Z,23.95
2024-01-09T18:14:34.326Z,24.92
2024-01-09T18:17:02.051Z,25.58
2024-01-09T18:19:29.917Z,22.23
2024-01-09T18:21:59.598Z,22.73
2024-01-09T18:24:27.402Z,23.85
2024-01-09T18:26:57.195Z,23.08
2024-01-09T18:29:24.949Z,23.42
2024-01-09T18:31:56.093Z,26.75
2024-01-09T18:34:24.209Z,23.10
2024-01-09T18:36:52.046Z,27.45
2024-01-09T18:39:23.275Z,25.20
2024-01-09T18:41:58.203Z,22.42
2024-01-09T18:44:28.095Z,23.48
2024-01-09T18:46:56.663Z,23.58
2024-01-09T18:49:25.802Z,26.50
2024-01-09T18:51:54.463Z,24.65
2024-01-09T18:54:24.892Z,24.95
2024-01-09T18:56:52.783Z,26.42
2024-01-09T18:59:26.029Z,23.48
2024-01-09T19:01:58.406Z,23.55
2024-01-09T19:04:27.592Z,25.35
2024-01-09T19:06:55.285Z,27.33
2024-01-09T19:09:23.755Z,25.50
2024-01-09T19:11:51.516Z,25.27
2024-01-09T19:14:19.627Z,26.73
2024-01-09T19:16:47.836Z,28.58
2024-01-09T19:19:17.236Z,25.60
2024-01-09T19:21:46.666Z,24.88
2024-01-09T19:24:17.389Z,25.42
2024-01-09T19:26:46.121Z,25.02
2024-01-09T19:29:17.133Z,26.75
2024-01-09T19:31:44.901Z,28.05
2024-01-09T19:34:12.964Z,29.88
2024-01-09T19:36:45.393Z,28.10
2024-01-09T19:39:13.197Z,26.30
2024-01-09T19:41:40.856Z,27.73
2024-01-09T19:44:09.098Z,29.77
2024-01-09T19:46:41.288Z,27.48
2024-01-09T19:49:09.030Z,29.23
2024-01-09T19:51:37.446Z,28.30
2024-01-09T19:54:10.902Z,28.02
2024-01-09T19:56:40.348Z,25.10
2024-01-09T20:01:36.786Z,26.02
2024-01-09T20:04:04.606Z,27.58
2024-01-09T20:06:32.525Z,28.02
2024-01-09T20:09:00.155Z,26.90
2024-01-09T20:11:31.506Z,27.00
2024-01-09T20:14:02.596Z,26.90
2024-01-09T20:16:30.480Z,27.58
2024-01-09T20:18:58.623Z,24.75
2024-01-09T20:21:29.999Z,23.45
2024-01-09T20:23:58.165Z,24.58
2024-01-09T20:26:33.437Z,25.45
2024-01-09T20:29:01.024Z,28.25
2024-01-09T20:31:31.836Z,26.92
2024-01-09T20:33:59.743Z,31.92
2024-01-09T20:36:27.909Z,28.92
2024-01-09T20:38:58.695Z,26.92
2024-01-09T20:41:28.874Z,25.08
2024-01-09T20:43:56.599Z,24.70
2024-01-09T20:46:24.729Z,28.02
2024-01-09T20:48:52.291Z,26.67
2024-01-09T20:51:19.784Z,27.33
2024-01-09T20:56:15.939Z,24.70
2024-01-09T20:58:43.609Z,24.77
2024-01-09T21:01:11.134Z,24.90
2024-01-09T21:03:38.842Z,24.40
2024-01-09T21:06:08.654Z,24.75
2024-01-09T21:08:36.189Z,24.17
2024-01-09T21:13:31.401Z,26.45
2024-01-09T21:16:00.893Z,23.90
2024-01-09T21:18:28.589Z,25.40
2024-01-09T21:20:57.604Z,26.02
2024-01-09T21:23:31.835Z,26.60
2024-01-09T21:26:05.597Z,27.42
2024-01-09T21:28:33.127Z,25.73
2024-01-09T21:31:00.736Z,26.67
2024-01-09T21:33:28.436Z,25.88
2024-01-09T21:35:56.138Z,28.35
2024-01-09T21:38:23.808Z,26.15
2024-01-09T21:40:57.941Z,23.83
2024-01-09T21:43:26.875Z,26.02
2024-01-09T21:45:54.553Z,27.55
2024-01-09T21:48:22.205Z,24.73
2024-01-09T21:50:49.962Z,26.27
2024-01-09T21:53:17.587Z,27.63
2024-01-09T21:55:45.377Z,29.77
2024-01-09T21:58:13.918Z,28.42
2024-01-09T22:00:41.608Z,23.98
2024-01-09T22:03:09.316Z,24.77
2024-01-09T22:05:37.011Z,29.20
2024-01-09T22:08:04.829Z,23.20
2024-01-09T22:10:33.247Z,28.90
2024-01-09T22:13:00.891Z,24.27
2024-01-09T22:17:55.853Z,26.85
2024-01-09T22:25:54.747Z,28.67
2024-01-09T22:28:22.325Z,27.45
2024-01-09T22:30:50.468Z,24.25
2024-01-09T22:33:18.845Z,26.42
2024-01-09T22:35:47.568Z,27.70
2024-01-09T22:38:15.437Z,27.42
2024-01-09T22:40:43.132Z,25.20
2024-01-09T22:43:10.832Z,28.73
2024-01-09T22:45:38.416Z,28.10
2024-01-09T22:50:33.851Z,26.83
2024-01-09T22:53:02.253Z,30.15
2024-01-09T22:55:29.791Z,30.80
2024-01-09T23:00:26.838Z,29.80
2024-01-09T23:02:57.450Z,28.20
2024-01-09T23:05:26.942Z,29.02
2024-01-09T23:07:55.263Z,28.13
2024-01-09T23:10:23.053Z,27.15
2024-01-09T23:12:50.512Z,28.05
2024-01-09T23:17:45.671Z,32.88
2024-01-09T23:20:15.596Z,34.13
2024-01-09T23:22:43.417Z,29.73
2024-01-09T23:25:12.696Z,32.25
2024-01-09T23:27:40.335Z,30.58
2024-01-09T23:30:08.750Z,32.10
2024-01-09T23:32:36.494Z,31.15
2024-01-09T23:35:04.652Z,28.67
2024-01-09T23:37:34.696Z,28.67
2024-01-09T23:40:02.419Z,32.70
2024-01-09T23:42:29.984Z,29.13
2024-01-09T23:47:24.904Z,32.60
2024-01-09T23:52:20.156Z,32.72
2024-01-09T23:54:48.224Z,32.85
2024-01-09T23:57:15.860Z,29.23
2024-01-09T23:59:43.429Z,32.13
